LSGT weather

Gruyeres Airport
Canton of Fribourg, Switzerland

Public forecast

Using degrees Celsius for public forecast. Weather courtesy of forecast.io.

METAR (pilot weather report)

Closest report is Payerne Air Base, 16.7 nm (30.9 km) NNW. Retrieved 2019/09/22 11:20 UTC (1 minute ago):

LSMP 221120Z VRB02KT 9999 FEW110 23/15 Q1012 RMK BLU+

TAF (pilot weather forecast)

Closest forecast is Payerne Air Base, 16.7 nm (30.9 km) NNW. Retrieved 2019/09/22 10:00 UTC (1 hour ago):

TAF LSMP 220925Z 2210/2316 VRB03KT 9999 FEW090 SCT110 TEMPO 2218/2303 SHRA SCT030TCU PROB40 TEMPO 2218/2224 30010KT TSRA SCT040CB